CheckWX is a tool to help pilots better visualize weather data.  It is not intended as a substitute for an official pre-flight weather briefing.

10:42:38 UTC

LPPT TAF
Lisbon Portela Airport
Lisbon, Portugal
TAF LPPT 260500Z 2606/2712 VRB03KT 9999 SCT012 BKN018 PROB30 TEMPO 2606/2609 3000 DZRA BR SCT002 BKN004 BECMG 2609/2612 31007KT SCT020 BKN040 TEMPO 2609/2615 6000 -RA BKN018 BECMG 2615/2617 FEW020 BECMG 2623/2702 29005KT SCT012

Jun-26@
06:00 UTC

Jun-26 @ 06:00 UTC

Jun-26@
09:00 UTC

Jun-26 @ 09:00 UTC

TAF LPPT 260500Z 2606/2712 VRB03KT 9999 SCT012 BKN018

Expired

Wind
  • Variable at 3 KTS
Cloud Levels
  • Scattered at 1,200' AGL
  • Broken at 1,800' AGL

Jun-26@
06:00 UTC

Jun-26 @ 06:00 UTC

Jun-26@
09:00 UTC

Jun-26 @ 09:00 UTC

PROB30 TEMPO 2606/2609 3000 DZRA BR SCT002 BKN004

Expired

Conditions
Drizzle, Rain, Mist
Cloud Levels
  • Scattered at 200' AGL
  • Broken at 400' AGL

Jun-26@
09:00 UTC

Jun-26 @ 09:00 UTC

Jun-26@
15:00 UTC

Jun-26 @ 15:00 UTC

TEMPO 2609/2615 6000 -RA BKN018

Temporary

Temporary Changes expected for less than half the time period

Conditions
Light Rain
Cloud Levels
  • Broken at 1,800' AGL

Jun-26@
09:00 UTC

Jun-26 @ 09:00 UTC

Jun-26@
15:00 UTC

Jun-26 @ 15:00 UTC

BECMG 2609/2612 31007KT SCT020 BKN040

Becoming

Becoming Conditions expected by Wed, Jun 26, 2019 @ 12:00 UTC

Wind
  • 310° at 7 KTS
Cloud Levels
  • Scattered at 2,000' AGL
  • Broken at 4,000' AGL

Jun-26@
15:00 UTC

Jun-26 @ 15:00 UTC

Jun-26@
23:00 UTC

Jun-26 @ 23:00 UTC

BECMG 2615/2617 FEW020

Becoming

Becoming Conditions expected by Wed, Jun 26, 2019 @ 17:00 UTC

Wind
  • 310° at 7 KTS
Cloud Levels
  • Few at 2,000' AGL

Jun-26@
23:00 UTC

Jun-26 @ 23:00 UTC

Jun-27@
12:00 UTC

Jun-27 @ 12:00 UTC

BECMG 2623/2702 29005KT SCT012

Becoming

Becoming Conditions expected by Thu, Jun 27, 2019 @ 02:00 UTC

Wind
  • 290° at 5 KTS
Cloud Levels
  • Scattered at 1,200' AGL